»·PEaware :: N25SC KSMX-KSBA

N25SC :: KSMX-KSBA

FLIGHT INFORMATION

Flight Status: Arrived
Operator: Privately registered:
United States
More flights under this callsign
Pilot: Anonymous 10181 (10181)
Aircraft: CESSNA 152 AEROBAT
(C152)
More flights by this aircraft type
Origin: KSMX Santa Maria Pub/Capt Hancock
United States
Destination: KSBA Santa Barbara Mun
United States
More flights between these airports :: More routes between these airports
Route: BUELT4 GVO HABUT
File this flight plan on PilotEdge
Remarks: Happy Holidays to all my friends at PilotEdge! You're the best!
Altitude:
(Current/Filed)
5,000ft
Speed:
(Current/Filed)
90kts
Departed: 24-Dec-21 06:53 PM
Arrived: 24-Dec-21 07:30 PM
Distance/Time
Traveled:
41nm/0:37
Distance/Time
To Go:
Arrived

Flight Plot

Page will automatically refresh every two minutes.

Flight plan parsing failed; only flown route is shown


Map Options




Map Legend


Flown Route
Filed Route
Departure Airport
Arrival Airport
Navaid (VOR, NDB)
Fix

Horizontal Profiles

Position Reports

Time Latitude Longitude Heading Altitude Ground
Speed
24-Dec-21 18:42 34.899042 -120.448622 40 247ft 0kts
24-Dec-21 18:43 34.898545 -120.448477 177 249ft 8kts
24-Dec-21 18:44 34.898193 -120.448480 189 249ft 0kts
24-Dec-21 18:45 34.898193 -120.448480 189 249ft 0kts
24-Dec-21 18:46 34.898193 -120.448480 189 249ft 0kts
24-Dec-21 18:47 34.898193 -120.448480 189 249ft 0kts
24-Dec-21 18:48 34.897542 -120.448921 180 250ft 13kts
24-Dec-21 18:49 34.895523 -120.446673 132 257ft 1kts
24-Dec-21 18:50 34.893464 -120.445274 174 263ft 1kts
24-Dec-21 18:51 34.892759 -120.445916 322 264ft 0kts
24-Dec-21 18:52 34.893350 -120.446601 315 263ft 33kts
24-Dec-21 18:53 34.905129 -120.461245 316 809ft 65kts
24-Dec-21 18:54 34.920246 -120.467856 26 1534ft 67kts
24-Dec-21 18:54 34.921427 -120.448468 106 2124ft 83kts
24-Dec-21 18:56 34.899499 -120.445738 202 3031ft 79kts
24-Dec-21 18:57 34.878877 -120.453757 203 3772ft 81kts
24-Dec-21 18:58 34.858049 -120.463120 202 4479ft 79kts
24-Dec-21 18:58 34.839211 -120.471858 203 4800ft 99kts
24-Dec-21 18:59 34.812991 -120.484319 202 4882ft 97kts
24-Dec-21 19:01 34.806546 -120.450428 89 4893ft 103kts
24-Dec-21 19:02 34.806546 -120.415385 87 4915ft 102kts
24-Dec-21 19:03 34.801481 -120.383555 150 4916ft 103kts
24-Dec-21 19:03 34.779747 -120.371729 159 4928ft 102kts
24-Dec-21 19:04 34.752485 -120.362128 151 4912ft 103kts
24-Dec-21 19:06 34.725204 -120.337873 154 4848ft 105kts
24-Dec-21 19:07 34.700657 -120.319431 146 4820ft 104kts
24-Dec-21 19:07 34.682594 -120.300092 136 4809ft 104kts
24-Dec-21 19:08 34.661525 -120.275863 140 4780ft 104kts
24-Dec-21 19:09 34.644970 -120.248556 124 4832ft 100kts
24-Dec-21 19:10 34.629463 -120.219912 131 4868ft 101kts
24-Dec-21 19:11 34.607930 -120.197451 136 4947ft 100kts
24-Dec-21 19:12 34.591020 -120.169161 123 4899ft 107kts
24-Dec-21 19:13 34.568294 -120.146945 148 4836ft 105kts
24-Dec-21 19:14 34.546597 -120.123136 128 4772ft 105kts
24-Dec-21 19:15 34.522381 -120.105593 146 4826ft 101kts
24-Dec-21 19:16 34.498515 -120.090209 182 4698ft 106kts
24-Dec-21 19:17 34.467852 -120.093579 192 4173ft 112kts
24-Dec-21 19:18 34.437081 -120.094895 171 3712ft 112kts
24-Dec-21 19:19 34.419801 -120.070712 76 3294ft 107kts
24-Dec-21 19:20 34.424003 -120.034940 88 2980ft 107kts
24-Dec-21 19:21 34.423539 -119.998114 90 2556ft 114kts
24-Dec-21 19:22 34.423264 -119.959361 82 1894ft 113kts
24-Dec-21 19:23 34.425460 -119.923434 82 1181ft 104kts
24-Dec-21 19:24 34.426369 -119.892573 98 1032ft 87kts
24-Dec-21 19:25 34.414579 -119.865155 114 1029ft 88kts
24-Dec-21 19:26 34.410089 -119.836753 93 999ft 81kts
24-Dec-21 19:27 34.414056 -119.811267 28 767ft 76kts
24-Dec-21 19:28 34.428211 -119.821622 268 329ft 65kts
24-Dec-21 19:29 34.427784 -119.839872 268 16ft 29kts
24-Dec-21 19:30 34.428805 -119.842042 340 14ft 0kts
24-Dec-21 19:31 34.429505 -119.842270 349 13ft 18kts

Navigation Log

Ident Type
Flight plan parsing failed, navigation log unavailable